createdAt,value
2018-04-22T00:01:18.799Z,83.10
2018-04-22T00:03:46.290Z,84.00
2018-04-22T00:06:13.782Z,84.40
2018-04-22T00:08:41.311Z,85.00
2018-04-22T00:11:08.811Z,87.20
2018-04-22T00:13:36.319Z,87.00
2018-04-22T00:16:03.839Z,88.60
2018-04-22T00:18:31.343Z,88.80
2018-04-22T00:20:58.852Z,88.60
2018-04-22T00:23:26.390Z,88.90
2018-04-22T00:25:53.987Z,90.00
2018-04-22T00:28:21.515Z,90.20
2018-04-22T00:30:49.032Z,91.00
2018-04-22T00:33:16.549Z,90.20
2018-04-22T00:35:44.049Z,91.60
2018-04-22T00:38:11.671Z,91.40
2018-04-22T00:40:39.181Z,91.60
2018-04-22T00:43:06.683Z,90.10
2018-04-22T00:45:34.206Z,90.70
2018-04-22T00:48:01.715Z,89.40
2018-04-22T00:50:29.238Z,89.80
2018-04-22T00:52:56.884Z,88.00
2018-04-22T00:55:24.388Z,90.20
2018-04-22T00:57:51.888Z,90.00
2018-04-22T01:00:19.503Z,89.70
2018-04-22T01:02:47.013Z,88.40
2018-04-22T01:05:14.524Z,88.00
2018-04-22T01:07:42.243Z,88.10
2018-04-22T01:10:09.755Z,89.60
2018-04-22T01:12:37.267Z,89.80
2018-04-22T01:15:05.009Z,90.30
2018-04-22T01:17:32.515Z,90.40
2018-04-22T01:20:00.020Z,89.60
2018-04-22T01:22:27.651Z,88.60
2018-04-22T01:24:55.151Z,88.70
2018-04-22T01:27:22.661Z,86.90
2018-04-22T01:29:50.305Z,87.50
2018-04-22T01:32:17.807Z,86.80
2018-04-22T01:34:45.305Z,85.90
2018-04-22T01:37:12.827Z,87.50
2018-04-22T01:39:40.349Z,87.70
2018-04-22T01:42:07.860Z,87.90
2018-04-22T01:44:35.498Z,89.10
2018-04-22T01:47:03.000Z,87.40
2018-04-22T01:49:30.499Z,87.90
2018-04-22T01:51:58.028Z,87.50
2018-04-22T01:54:25.536Z,87.80
2018-04-22T01:56:53.040Z,88.60
2018-04-22T01:59:20.759Z,91.10
2018-04-22T02:01:48.280Z,90.40
2018-04-22T02:04:15.793Z,90.00
2018-04-22T02:06:43.312Z,90.70
2018-04-22T02:09:10.823Z,90.60
2018-04-22T02:11:38.388Z,90.90
2018-04-22T02:14:06.027Z,91.10
2018-04-22T02:16:33.532Z,91.60
2018-04-22T02:19:01.046Z,91.00
2018-04-22T02:21:28.703Z,89.00
2018-04-22T02:23:56.204Z,89.70
2018-04-22T02:26:23.700Z,90.50
2018-04-22T02:28:51.373Z,90.50
2018-04-22T02:31:18.871Z,90.40
2018-04-22T02:33:46.371Z,90.50
2018-04-22T02:36:13.995Z,89.40
2018-04-22T02:38:41.504Z,90.40
2018-04-22T02:41:09.011Z,90.40
2018-04-22T02:43:36.613Z,90.00
2018-04-22T02:46:04.047Z,90.40
2018-04-22T02:48:31.540Z,89.70
2018-04-22T02:50:59.292Z,90.30
2018-04-22T02:53:26.795Z,90.50
2018-04-22T02:55:54.357Z,91.70
2018-04-22T02:58:22.651Z,92.70
2018-04-22T03:00:50.172Z,92.70
2018-04-22T03:03:17.673Z,93.50
2018-04-22T03:05:45.295Z,94.10
2018-04-22T03:08:12.802Z,94.60
2018-04-22T03:10:40.307Z,94.60
2018-04-22T03:13:08.806Z,95.30
2018-04-22T03:15:36.325Z,96.10
2018-04-22T03:18:03.845Z,96.30
2018-04-22T03:20:31.463Z,97.10
2018-04-22T03:22:58.985Z,97.80
2018-04-22T03:25:26.534Z,98.40
2018-04-22T03:27:54.038Z,98.60
2018-04-22T03:30:21.536Z,99.40
2018-04-22T03:32:49.051Z,99.80
2018-04-22T03:35:16.671Z,99.90
2018-04-22T03:37:44.166Z,99.60
2018-04-22T03:40:11.664Z,99.90
2018-04-22T03:42:39.298Z,99.90
2018-04-22T03:45:06.804Z,99.90
2018-04-22T03:47:34.315Z,99.90
2018-04-22T03:50:01.937Z,99.90
2018-04-22T03:52:29.441Z,99.90
2018-04-22T03:54:56.944Z,99.90
2018-04-22T03:57:24.492Z,99.90
2018-04-22T03:59:51.994Z,99.90
2018-04-22T04:02:19.493Z,99.90
2018-04-22T04:04:47.123Z,99.90
2018-04-22T04:07:14.622Z,99.90
2018-04-22T04:09:42.120Z,99.90
2018-04-22T04:12:09.885Z,99.90
2018-04-22T04:14:37.384Z,99.90
2018-04-22T04:17:04.886Z,99.90
2018-04-22T04:19:44.168Z,98.40
2018-04-22T04:22:23.241Z,98.50
2018-04-22T04:25:02.689Z,98.10
2018-04-22T04:27:45.041Z,97.50
2018-04-22T04:30:12.655Z,97.70
2018-04-22T04:32:40.155Z,97.50
2018-04-22T04:35:07.647Z,97.40
2018-04-22T04:37:35.327Z,98.10
2018-04-22T04:40:02.828Z,98.90
2018-04-22T04:42:30.322Z,98.40
2018-04-22T04:44:57.923Z,98.70
2018-04-22T04:47:25.419Z,99.10
2018-04-22T04:49:52.923Z,99.90
2018-04-22T04:52:20.682Z,99.90
2018-04-22T04:54:48.184Z,99.90
2018-04-22T04:57:15.694Z,97.40
2018-04-22T04:59:43.320Z,96.40
2018-04-22T05:02:10.835Z,96.50
2018-04-22T05:04:38.338Z,94.10
2018-04-22T05:07:05.961Z,93.50
2018-04-22T05:09:33.468Z,93.10
2018-04-22T05:12:00.984Z,92.00
2018-04-22T05:14:28.616Z,93.90
2018-04-22T05:16:56.130Z,93.50
2018-04-22T05:19:23.627Z,92.70
2018-04-22T05:21:51.250Z,93.00
2018-04-22T05:24:18.772Z,90.80
2018-04-22T05:26:46.283Z,90.30
2018-04-22T05:29:13.906Z,90.40
2018-04-22T05:31:41.415Z,88.60
2018-04-22T05:34:08.916Z,86.30
2018-04-22T05:36:36.568Z,84.00
2018-04-22T05:39:05.845Z,86.60
2018-04-22T05:41:33.455Z,86.50
2018-04-22T05:44:00.974Z,84.70
2018-04-22T05:46:28.485Z,83.80
2018-04-22T05:48:56.019Z,83.50
2018-04-22T05:51:23.587Z,82.40
2018-04-22T05:53:51.060Z,83.40
2018-04-22T05:56:18.684Z,86.40
2018-04-22T05:58:46.189Z,81.80
2018-04-22T06:01:13.692Z,85.50
2018-04-22T06:03:41.445Z,84.00
2018-04-22T06:06:08.972Z,81.30
2018-04-22T06:08:36.485Z,81.50
2018-04-22T06:11:04.019Z,79.20
2018-04-22T06:13:31.529Z,78.20
2018-04-22T06:15:59.028Z,76.00
2018-04-22T06:18:26.589Z,79.10
2018-04-22T06:20:54.091Z,77.40
2018-04-22T06:23:22.478Z,73.50
2018-04-22T06:25:50.027Z,71.40
2018-04-22T06:28:17.579Z,71.60
2018-04-22T06:30:45.069Z,70.80
2018-04-22T06:33:12.699Z,75.40
2018-04-22T06:35:40.207Z,75.10
2018-04-22T06:38:07.736Z,72.00
2018-04-22T06:40:35.392Z,71.10
2018-04-22T06:43:02.923Z,71.80
2018-04-22T06:45:30.459Z,67.80
2018-04-22T06:47:58.077Z,71.30
2018-04-22T06:50:25.582Z,67.90
2018-04-22T06:52:53.133Z,70.60
2018-04-22T06:55:20.669Z,67.70
2018-04-22T06:57:48.198Z,68.10
2018-04-22T07:00:15.694Z,67.20
2018-04-22T07:02:43.267Z,66.10
2018-04-22T07:05:10.832Z,65.80
2018-04-22T07:07:38.347Z,65.30
2018-04-22T07:10:05.984Z,64.70
2018-04-22T07:12:33.519Z,68.00
2018-04-22T07:15:01.091Z,65.50
2018-04-22T07:17:28.708Z,65.20
2018-04-22T07:19:56.337Z,67.60
2018-04-22T07:22:23.891Z,65.00
2018-04-22T07:24:51.651Z,63.30
2018-04-22T07:27:19.178Z,64.10
2018-04-22T07:29:46.720Z,61.30
2018-04-22T07:32:14.405Z,62.50
2018-04-22T07:34:41.912Z,67.90
2018-04-22T07:37:09.437Z,72.90
2018-04-22T07:39:36.992Z,66.60
2018-04-22T07:42:04.527Z,65.60
2018-04-22T07:44:32.039Z,61.60
2018-04-22T07:46:59.582Z,63.40
2018-04-22T07:49:27.197Z,60.20
2018-04-22T07:51:54.771Z,61.80
2018-04-22T07:54:22.456Z,63.00
2018-04-22T07:56:50.006Z,61.90
2018-04-22T07:59:18.389Z,61.20
2018-04-22T08:01:46.141Z,60.90
2018-04-22T08:04:13.747Z,61.20
2018-04-22T08:06:41.305Z,59.60
2018-04-22T08:09:09.081Z,59.30
2018-04-22T08:11:36.733Z,58.90
2018-04-22T08:14:04.331Z,59.30
2018-04-22T08:16:32.078Z,60.80
2018-04-22T08:18:59.863Z,58.50
2018-04-22T08:21:27.428Z,59.20
2018-04-22T08:23:54.965Z,58.30
2018-04-22T08:26:22.532Z,56.40
2018-04-22T08:28:50.100Z,58.90
2018-04-22T08:31:17.666Z,56.80
2018-04-22T08:33:45.200Z,56.50
2018-04-22T08:36:12.779Z,56.70
2018-04-22T08:38:40.403Z,58.70
2018-04-22T08:41:07.963Z,57.20
2018-04-22T08:43:35.508Z,55.40
2018-04-22T08:46:03.358Z,54.90
2018-04-22T08:48:30.895Z,55.40
2018-04-22T08:50:58.427Z,55.70
2018-04-22T08:53:26.085Z,56.30
2018-04-22T08:55:53.679Z,56.60
2018-04-22T08:58:21.180Z,55.10
2018-04-22T09:00:48.806Z,56.10
2018-04-22T09:03:16.390Z,56.00
2018-04-22T09:05:43.936Z,55.40
2018-04-22T09:08:11.592Z,57.50
2018-04-22T09:10:39.116Z,56.60
2018-04-22T09:13:06.669Z,56.30
2018-04-22T09:15:34.553Z,55.40
2018-04-22T09:18:02.101Z,56.40
2018-04-22T09:20:29.664Z,54.10
2018-04-22T09:22:57.306Z,53.40
2018-04-22T09:25:24.831Z,53.00
2018-04-22T09:27:52.395Z,54.40
2018-04-22T09:30:20.011Z,55.40
2018-04-22T09:32:47.553Z,53.30
2018-04-22T09:35:15.085Z,53.40
2018-04-22T09:37:42.614Z,52.70
2018-04-22T09:40:10.115Z,55.10
2018-04-22T09:42:37.650Z,54.70
2018-04-22T09:45:05.237Z,54.70
2018-04-22T09:47:32.765Z,53.90
2018-04-22T09:50:00.286Z,53.70
2018-04-22T09:52:27.922Z,53.30
2018-04-22T09:54:55.423Z,54.30
2018-04-22T09:57:22.940Z,54.30
2018-04-22T09:59:50.643Z,55.30
2018-04-22T10:02:23.836Z,52.70
2018-04-22T10:04:51.478Z,52.90
2018-04-22T10:07:18.991Z,53.40
2018-04-22T10:09:46.497Z,54.00
2018-04-22T10:12:14.052Z,54.10
2018-04-22T10:14:41.561Z,53.70
2018-04-22T10:17:09.237Z,55.80
2018-04-22T10:19:37.077Z,53.20
2018-04-22T10:22:04.623Z,52.60
2018-04-22T10:24:32.145Z,53.60
2018-04-22T10:26:59.930Z,54.30
2018-04-22T10:29:27.460Z,53.90
2018-04-22T10:31:54.996Z,53.70
2018-04-22T10:34:22.678Z,53.10
2018-04-22T10:36:50.176Z,53.60
2018-04-22T10:39:17.695Z,52.50
2018-04-22T10:41:46.026Z,53.80
2018-04-22T10:44:13.566Z,53.80
2018-04-22T10:46:41.109Z,53.50
2018-04-22T10:49:08.619Z,51.50
2018-04-22T10:51:36.125Z,54.20
2018-04-22T10:54:03.631Z,51.60
2018-04-22T10:56:31.293Z,53.20
2018-04-22T10:58:58.804Z,52.20
2018-04-22T11:01:26.323Z,51.20
2018-04-22T11:03:53.848Z,53.20
2018-04-22T11:06:21.359Z,53.60
2018-04-22T11:08:48.874Z,51.50
2018-04-22T11:14:47.454Z,51.60
2018-04-22T11:17:14.964Z,51.50
2018-04-22T11:19:42.537Z,52.40
2018-04-22T11:22:10.950Z,51.00
2018-04-22T11:24:38.550Z,50.40
2018-04-22T11:27:06.837Z,52.50
2018-04-22T11:29:34.562Z,52.50
2018-04-22T11:32:02.083Z,51.30
2018-04-22T11:34:29.604Z,50.20
2018-04-22T11:36:57.368Z,52.00
2018-04-22T11:39:24.909Z,50.00
2018-04-22T11:41:52.431Z,50.80
2018-04-22T11:44:19.996Z,51.10
2018-04-22T11:46:47.499Z,51.00
2018-04-22T11:49:15.083Z,50.10
2018-04-22T11:51:42.748Z,49.10
2018-04-22T11:54:11.438Z,51.60
2018-04-22T11:56:39.074Z,48.90
2018-04-22T11:59:07.605Z,48.30
2018-04-22T12:01:35.136Z,47.60
2018-04-22T12:04:02.653Z,49.00
2018-04-22T12:06:30.401Z,47.90
2018-04-22T12:08:58.789Z,46.50
2018-04-22T12:11:26.342Z,46.50
2018-04-22T12:13:53.893Z,46.10
2018-04-22T12:16:21.509Z,43.80
2018-04-22T12:18:49.041Z,43.40
2018-04-22T12:21:16.767Z,43.20
2018-04-22T12:23:44.267Z,45.30
2018-04-22T12:26:11.791Z,45.60
2018-04-22T12:28:40.273Z,45.90
2018-04-22T12:31:08.539Z,44.70
2018-04-22T12:33:37.022Z,43.50
2018-04-22T12:36:05.400Z,44.40
2018-04-22T12:38:33.703Z,44.70
2018-04-22T12:41:01.242Z,44.70
2018-04-22T12:43:28.761Z,43.90
2018-04-22T12:45:56.312Z,44.50
2018-04-22T12:48:23.827Z,43.80
2018-04-22T12:50:51.328Z,43.30
2018-04-22T12:53:18.869Z,43.00
2018-04-22T12:55:47.131Z,43.60
2018-04-22T12:58:15.464Z,44.60
2018-04-22T13:00:43.220Z,44.60
2018-04-22T13:03:10.757Z,44.10
2018-04-22T13:05:38.298Z,43.40
2018-04-22T13:08:06.018Z,43.80
2018-04-22T13:10:33.540Z,44.90
2018-04-22T13:13:01.091Z,43.40
2018-04-22T13:15:28.653Z,43.00
2018-04-22T13:17:56.182Z,42.00
2018-04-22T13:20:23.717Z,43.50
2018-04-22T13:22:52.219Z,43.00
2018-04-22T13:25:20.109Z,42.90
2018-04-22T13:27:47.637Z,42.40
2018-04-22T13:30:16.135Z,43.40
2018-04-22T13:32:43.653Z,43.40
2018-04-22T13:35:11.167Z,44.90
2018-04-22T13:37:38.946Z,43.50
2018-04-22T13:40:06.451Z,43.90
2018-04-22T13:42:33.956Z,42.80
2018-04-22T13:45:01.582Z,43.60
2018-04-22T13:47:29.121Z,43.70
2018-04-22T13:49:56.778Z,43.00
2018-04-22T13:52:24.545Z,43.70
2018-04-22T13:54:52.067Z,43.20
2018-04-22T13:57:20.359Z,42.20
2018-04-22T13:59:47.909Z,42.20
2018-04-22T14:02:16.208Z,43.70
2018-04-22T14:04:43.705Z,43.70
2018-04-22T14:07:11.539Z,41.30
2018-04-22T14:09:39.811Z,42.20
2018-04-22T14:12:08.365Z,40.70
2018-04-22T14:14:35.881Z,40.70
2018-04-22T14:17:03.401Z,43.70
2018-04-22T14:19:31.225Z,43.30
2018-04-22T14:21:58.898Z,41.00
2018-04-22T14:24:26.440Z,42.50
2018-04-22T14:26:54.126Z,41.10
2018-04-22T14:29:21.710Z,41.40
2018-04-22T14:31:49.230Z,42.00
2018-04-22T14:34:16.902Z,41.00
2018-04-22T14:36:44.417Z,40.30
2018-04-22T14:39:11.951Z,41.00
2018-04-22T14:41:39.701Z,40.40
2018-04-22T14:44:19.098Z,40.30
2018-04-22T14:46:46.637Z,41.50
2018-04-22T14:49:14.190Z,40.80
2018-04-22T14:51:41.740Z,40.50
2018-04-22T14:54:09.581Z,39.80
2018-04-22T14:56:37.172Z,40.50
2018-04-22T14:59:05.467Z,41.20
2018-04-22T15:01:33.057Z,39.60
2018-04-22T15:04:00.562Z,40.50
2018-04-22T15:06:28.138Z,40.90
2018-04-22T15:08:55.768Z,40.40
2018-04-22T15:11:24.085Z,40.70
2018-04-22T15:13:51.634Z,40.00
2018-04-22T15:16:19.324Z,40.10
2018-04-22T15:18:46.828Z,41.20
2018-04-22T15:21:14.339Z,39.80
2018-04-22T15:23:41.877Z,40.10
2018-04-22T15:26:10.164Z,36.90
2018-04-22T15:28:37.685Z,36.80
2018-04-22T15:31:05.298Z,37.10
2018-04-22T15:33:33.571Z,37.50
2018-04-22T15:36:01.858Z,38.70
2018-04-22T15:38:29.382Z,38.60
2018-04-22T15:40:56.921Z,39.80
2018-04-22T15:43:24.547Z,40.20
2018-04-22T15:45:52.811Z,39.70
2018-04-22T15:48:20.322Z,39.70
2018-04-22T15:50:47.974Z,40.10
2018-04-22T15:53:15.483Z,40.50
2018-04-22T15:55:43.067Z,41.40
2018-04-22T15:58:11.482Z,39.50
2018-04-22T16:00:39.732Z,39.70
2018-04-22T16:03:08.034Z,40.20
2018-04-22T16:05:35.545Z,40.20
2018-04-22T16:08:03.056Z,40.50
2018-04-22T16:10:31.563Z,40.30
2018-04-22T16:12:59.084Z,40.20
2018-04-22T16:15:26.596Z,40.60
2018-04-22T16:17:54.350Z,39.50
2018-04-22T16:20:21.893Z,39.70
2018-04-22T16:22:50.175Z,40.20
2018-04-22T16:25:18.576Z,40.70
2018-04-22T16:27:46.106Z,40.70
2018-04-22T16:30:14.410Z,40.10
2018-04-22T16:32:42.073Z,40.10
2018-04-22T16:35:10.384Z,41.20
2018-04-22T16:37:37.895Z,41.20
2018-04-22T16:40:05.528Z,41.50
2018-04-22T16:42:33.059Z,41.40
2018-04-22T16:45:00.576Z,42.20
2018-04-22T16:47:28.123Z,41.00
2018-04-22T16:49:55.660Z,41.20
2018-04-22T16:52:23.219Z,41.60
2018-04-22T16:54:50.879Z,42.10
2018-04-22T16:57:18.445Z,42.10
2018-04-22T16:59:45.961Z,45.10
2018-04-22T17:02:13.680Z,43.60
2018-04-22T17:04:41.201Z,46.70
2018-04-22T17:07:08.810Z,46.30
2018-04-22T17:09:36.409Z,46.90
2018-04-22T17:12:03.937Z,47.20
2018-04-22T17:14:31.453Z,47.70
2018-04-22T17:16:59.012Z,44.70
2018-04-22T17:19:26.540Z,47.20
2018-04-22T17:21:54.068Z,47.70
2018-04-22T17:24:22.367Z,47.70
2018-04-22T17:26:49.878Z,47.70
2018-04-22T17:29:17.429Z,48.10
2018-04-22T17:31:45.105Z,49.20
2018-04-22T17:34:12.617Z,49.40
2018-04-22T17:36:40.178Z,48.60
2018-04-22T17:39:07.876Z,49.10
2018-04-22T17:41:35.386Z,48.70
2018-04-22T17:44:03.673Z,50.10
2018-04-22T17:46:31.988Z,50.20
2018-04-22T17:49:00.361Z,50.50
2018-04-22T17:51:27.908Z,50.50
2018-04-22T17:53:56.557Z,51.00
2018-04-22T17:56:24.078Z,51.20
2018-04-22T17:58:51.854Z,51.50
2018-04-22T18:01:19.468Z,52.30
2018-04-22T18:03:47.023Z,52.70
2018-04-22T18:06:14.778Z,53.20
2018-04-22T18:08:42.294Z,53.80
2018-04-22T18:11:10.781Z,54.60
2018-04-22T18:13:38.374Z,54.70
2018-04-22T18:16:05.888Z,56.10
2018-04-22T18:18:34.167Z,55.70
2018-04-22T18:21:02.666Z,56.30
2018-04-22T18:23:30.993Z,56.10
2018-04-22T18:25:58.545Z,56.10
2018-04-22T18:28:26.076Z,56.50
2018-04-22T18:30:54.349Z,55.70
2018-04-22T18:33:22.674Z,55.20
2018-04-22T18:35:50.193Z,55.20
2018-04-22T18:38:18.482Z,55.10
2018-04-22T18:40:46.919Z,55.20
2018-04-22T18:43:14.547Z,55.20
2018-04-22T18:45:42.111Z,57.30
2018-04-22T18:48:09.691Z,55.90
2018-04-22T18:50:37.235Z,56.60
2018-04-22T18:53:04.855Z,57.90
2018-04-22T18:55:32.405Z,56.60
2018-04-22T18:57:59.951Z,55.80
2018-04-22T19:00:27.469Z,56.90
2018-04-22T19:02:55.862Z,57.40
2018-04-22T19:05:24.160Z,55.90
2018-04-22T19:07:51.680Z,55.80
2018-04-22T19:10:19.390Z,57.00
2018-04-22T19:12:46.945Z,56.90
2018-04-22T19:15:14.471Z,57.50
2018-04-22T19:20:16.805Z,56.30
2018-04-22T19:22:44.480Z,56.20
2018-04-22T19:25:12.005Z,56.10
2018-04-22T19:27:40.300Z,57.50
2018-04-22T19:30:08.708Z,57.60
2018-04-22T19:32:36.227Z,57.60
2018-04-22T19:35:03.819Z,57.20
2018-04-22T19:37:31.425Z,58.40
2018-04-22T19:39:59.041Z,58.50
2018-04-22T19:42:27.347Z,57.90
2018-04-22T19:44:54.992Z,57.90
2018-04-22T19:47:22.559Z,58.90
2018-04-22T19:49:50.831Z,57.80
2018-04-22T19:52:19.205Z,58.20
2018-04-22T19:54:47.524Z,58.20
2018-04-22T19:57:15.691Z,58.10
2018-04-22T19:59:43.262Z,58.60
2018-04-22T20:02:10.801Z,58.10
2018-04-22T20:04:39.194Z,59.70
2018-04-22T20:07:06.719Z,59.70
2018-04-22T20:09:34.280Z,60.30
2018-04-22T20:12:01.919Z,60.40
2018-04-22T20:14:29.451Z,60.90
2018-04-22T20:16:56.988Z,60.50
2018-04-22T20:19:24.637Z,61.20
2018-04-22T20:21:52.182Z,62.60
2018-04-22T20:24:19.897Z,66.50
2018-04-22T20:26:48.288Z,65.20
2018-04-22T20:29:15.806Z,65.10
2018-04-22T20:31:43.329Z,68.70
2018-04-22T20:34:11.123Z,69.20
2018-04-22T20:36:38.696Z,69.80
2018-04-22T20:39:06.207Z,75.90
2018-04-22T20:41:34.632Z,88.80
2018-04-22T20:44:02.223Z,88.90
2018-04-22T20:46:29.842Z,87.70
2018-04-22T20:48:57.788Z,80.20
2018-04-22T20:51:26.086Z,84.90
2018-04-22T20:53:53.745Z,84.80
2018-04-22T20:56:22.694Z,85.40
2018-04-22T20:58:50.199Z,85.50
2018-04-22T21:01:18.582Z,89.60
2018-04-22T21:03:46.935Z,89.40
2018-04-22T21:06:14.575Z,89.30
2018-04-22T21:08:42.231Z,91.20
2018-04-22T21:11:10.706Z,90.80
2018-04-22T21:13:38.251Z,91.20
2018-04-22T21:16:05.815Z,88.60
2018-04-22T21:18:33.607Z,90.40
2018-04-22T21:21:01.186Z,90.70
2018-04-22T21:23:28.698Z,88.40
2018-04-22T21:25:57.129Z,90.40
2018-04-22T21:28:24.685Z,90.30
2018-04-22T21:30:52.184Z,89.80
2018-04-22T21:33:19.888Z,90.10
2018-04-22T21:35:47.411Z,90.00
2018-04-22T21:38:14.964Z,88.60
2018-04-22T21:40:44.719Z,88.60
2018-04-22T21:43:12.996Z,91.70
2018-04-22T21:45:41.306Z,89.70
2018-04-22T21:48:08.834Z,89.60
2018-04-22T21:50:36.353Z,88.90
2018-04-22T21:53:03.992Z,89.80
2018-04-22T21:55:31.539Z,89.10
2018-04-22T21:57:59.832Z,91.00
2018-04-22T22:00:27.378Z,90.90
2018-04-22T22:02:55.664Z,88.20
2018-04-22T22:05:23.967Z,88.30
2018-04-22T22:07:51.465Z,88.30
2018-04-22T22:10:18.976Z,90.40
2018-04-22T22:12:47.376Z,90.70
2018-04-22T22:15:14.921Z,90.70
2018-04-22T22:17:43.215Z,90.70
2018-04-22T22:20:10.853Z,90.70
2018-04-22T22:22:39.124Z,85.70
2018-04-22T22:25:06.657Z,85.70
2018-04-22T22:27:34.331Z,87.40
2018-04-22T22:30:01.849Z,90.20
2018-04-22T22:32:29.360Z,90.40
2018-04-22T22:34:56.991Z,89.20
2018-04-22T22:37:24.491Z,88.70
2018-04-22T22:39:52.004Z,88.90
2018-04-22T22:42:19.777Z,91.20
2018-04-22T22:44:47.306Z,92.00
2018-04-22T22:47:14.816Z,92.30
2018-04-22T22:49:42.365Z,92.50
2018-04-22T22:52:09.913Z,91.40
2018-04-22T22:54:38.180Z,92.40
2018-04-22T22:57:05.817Z,92.40
2018-04-22T22:59:33.332Z,91.10
2018-04-22T23:02:00.848Z,92.10
2018-04-22T23:04:28.468Z,94.10
2018-04-22T23:06:55.979Z,94.30
2018-04-22T23:09:23.502Z,94.50
2018-04-22T23:11:51.059Z,93.70
2018-04-22T23:14:18.573Z,93.90
2018-04-22T23:16:46.066Z,94.10
2018-04-22T23:19:14.368Z,96.20
2018-04-22T23:21:41.873Z,96.10
2018-04-22T23:24:09.382Z,95.50
2018-04-22T23:26:37.033Z,95.10
2018-04-22T23:29:05.312Z,94.50
2018-04-22T23:31:33.715Z,94.70
2018-04-22T23:34:01.230Z,94.70
2018-04-22T23:36:28.737Z,95.80
2018-04-22T23:38:56.394Z,96.90
2018-04-22T23:41:24.659Z,96.30
2018-04-22T23:43:52.163Z,96.30
2018-04-22T23:46:19.790Z,96.70
2018-04-22T23:48:47.289Z,97.30
2018-04-22T23:51:14.789Z,97.80
2018-04-22T23:53:42.446Z,97.50
2018-04-22T23:56:09.950Z,96.60
2018-04-22T23:58:38.207Z,96.30
